FQQL

Details ICAO FQQL (UEL)
Name QUELIMANE
Region Mozambique
Timezone Africa/Maputo (UTC+2.0)
Plans Departing 6
Arriving 6
Stats Elevation 36 ft / 11 m (AMSL)
Location -17.853200° 36.869600°
Runways 2
Magnetic Variation 10.475° W
Sunrise 2019-05-23 03:54:34 UTC / 2019-05-23 05:54:34 Local
Sunset 2019-05-23 15:06:46 UTC / 2019-05-23 17:06:46 Local
Advertisement - Login to hide

Runways

ID Width Length Bearing (true/mag) Surface Threshold Overrun Markings Lighting
09 98 ft / 30 m 3,027 ft / 923 m 84.31° / 94.79° GRAVEL 0 ft / 0 m 0 ft / 0 m VISUAL
18 148 ft / 45 m 5,931 ft / 1,808 m 174.30° / 184.77° ASPHALT 0 ft / 0 m 0 ft / 0 m APP EDGE THRESHOLD MALS
27 98 ft / 30 m 3,027 ft / 923 m 264.31° / 274.79° GRAVEL 0 ft / 0 m 0 ft / 0 m VISUAL
36 148 ft / 45 m 5,931 ft / 1,808 m 354.30° / 4.77° ASPHALT 0 ft / 0 m 0 ft / 0 m APP EDGE THRESHOLD MALS

Map

Weather


0- 5 10 15 20 25 30 35+ Temperature / °C

Clouds and Precipitation
Forecast for 2019-05-23 18:00 UTC. Updated 3 hours ago

Ground ~20,000 ft ~40,000 ft Winds

METAR

FQQL 231800Z 27002KT 9999 SCT020 23/21 Q1019

TAF

TAF FQQL 231600Z 2318/2418 25011KT 9999 BKN020 TX28/2413Z TN19/2403Z BECMG 2406/2408 16007KT BECMG 2412/2414 10013KT

Frequencies

Tower 118.30 MHz
Warning: Do not use this data for real-world aviation or navigation. No guarantee of current accuracy is given.